Time;durP1;ratioP1;P1;durP2;ratioP2;P2;SDS_P1;SDS_P2;PMS_P1;PMS_P2;Temp;Humidity;BMP_temperature;BMP_pressure;BME280_temperature;BME280_humidity;BME280_pressure;Samples;Min_cycle;Max_cycle;Signal;HPM_P1;HPM_P2
2021/04/11 00:00:16;;;;;;;20.73;13.05;;;3.40;95.60;;;;;;5072254;28;20055;-85
2021/04/11 00:02:42;;;;;;;20.35;13.48;;;3.40;95.60;;;;;;5074806;28;20032;-83
2021/04/11 00:05:09;;;;;;;23.05;13.57;;;3.40;95.60;;;;;;5027626;28;20518;-82
2021/04/11 00:07:34;;;;;;;20.40;13.48;;;3.50;95.70;;;;;;5075884;28;20033;-86
2021/04/11 00:10:00;;;;;;;22.75;14.07;;;3.50;95.60;;;;;;5026626;28;20050;-84
2021/04/11 00:12:26;;;;;;;19.55;13.20;;;3.40;95.60;;;;;;5055223;28;20032;-84
2021/04/11 00:14:52;;;;;;;24.33;14.65;;;3.40;95.50;;;;;;5038301;28;20100;-84
2021/04/11 00:17:17;;;;;;;22.10;14.70;;;3.40;95.80;;;;;;5044261;28;20032;-83
2021/04/11 00:19:43;;;;;;;25.50;13.90;;;3.40;95.50;;;;;;5055255;28;20131;-86
2021/04/11 00:22:09;;;;;;;21.23;13.25;;;3.40;95.60;;;;;;5051276;28;20044;-83
2021/04/11 00:24:35;;;;;;;18.58;12.57;;;3.40;95.50;;;;;;5066954;28;20032;-82
2021/04/11 00:27:01;;;;;;;26.50;14.43;;;3.40;95.60;;;;;;5066360;28;20035;-83
2021/04/11 00:29:27;;;;;;;20.05;13.32;;;3.40;95.60;;;;;;5068864;28;20381;-85
2021/04/11 00:31:52;;;;;;;18.50;12.88;;;3.40;95.90;;;;;;5061407;28;20071;-83
2021/04/11 00:34:18;;;;;;;22.40;14.48;;;3.40;95.60;;;;;;5070416;28;20521;-86
2021/04/11 00:36:44;;;;;;;21.92;14.05;;;3.40;95.60;;;;;;5082033;28;20033;-85
2021/04/11 00:39:10;;;;;;;20.27;13.18;;;3.40;95.60;;;;;;5069635;28;20090;-84
2021/04/11 00:41:44;;;;;;;21.95;13.30;;;3.40;95.60;;;;;;5055372;28;20060;-86
2021/04/11 00:44:11;;;;;;;21.23;12.75;;;3.30;95.90;;;;;;5085028;28;20036;-84
2021/04/11 00:46:47;;;;;;;21.42;12.98;;;3.30;95.60;;;;;;5067087;28;20040;-86
2021/04/11 00:49:35;;;;;;;19.23;11.02;;;3.40;95.70;;;;;;5066285;28;20461;-86
2021/04/11 00:52:03;;;;;;;20.17;11.35;;;3.30;95.70;;;;;;5088883;28;20151;-86
2021/04/11 00:54:29;;;;;;;15.07;9.18;;;3.30;95.70;;;;;;5085404;28;20060;-87
2021/04/11 00:56:55;;;;;;;19.67;10.35;;;3.30;95.70;;;;;;5069291;28;20028;-87
2021/04/11 00:59:21;;;;;;;14.55;8.88;;;3.30;95.70;;;;;;5059603;28;20035;-87
2021/04/11 01:01:47;;;;;;;14.90;8.05;;;3.40;95.70;;;;;;5079046;28;20062;-84
2021/04/11 01:04:16;;;;;;;13.90;8.10;;;3.30;95.70;;;;;;5071107;28;20024;-88
2021/04/11 01:06:56;;;;;;;13.60;8.73;;;3.30;95.70;;;;;;5070220;28;20076;-85
2021/04/11 01:09:22;;;;;;;14.63;9.27;;;3.30;95.70;;;;;;5080881;28;20387;-86
2021/04/11 01:11:48;;;;;;;13.10;8.50;;;3.30;95.70;;;;;;5085535;28;20055;-85
2021/04/11 01:14:15;;;;;;;12.13;7.88;;;3.30;95.70;;;;;;5086357;28;20111;-83
2021/04/11 01:16:42;;;;;;;17.38;8.93;;;3.40;95.70;;;;;;5060920;28;20029;-86
2021/04/11 01:19:17;;;;;;;12.55;8.77;;;3.40;95.70;;;;;;5039432;28;20035;-84
2021/04/11 01:21:58;;;;;;;11.02;8.13;;;3.40;95.70;;;;;;5081287;28;20243;-83
2021/04/11 01:24:44;;;;;;;12.65;8.05;;;3.30;95.70;;;;;;5086507;28;20069;-86
2021/04/11 01:27:13;;;;;;;13.15;8.63;;;3.40;95.70;;;;;;5080364;28;20103;-87
2021/04/11 01:29:41;;;;;;;11.77;7.93;;;3.50;95.70;;;;;;5084024;28;20028;-87
2021/04/11 01:32:08;;;;;;;13.75;8.02;;;3.40;95.70;;;;;;5090572;28;20043;-82
2021/04/11 01:34:35;;;;;;;12.10;8.77;;;3.40;95.70;;;;;;5068151;28;20028;-82
2021/04/11 01:37:03;;;;;;;12.88;8.43;;;3.40;96.00;;;;;;5078255;28;20036;-82
2021/04/11 01:39:31;;;;;;;13.15;7.97;;;3.40;95.70;;;;;;5089734;28;20036;-81
2021/04/11 01:41:59;;;;;;;16.48;8.18;;;3.40;95.70;;;;;;5082002;28;20040;-82
2021/04/11 01:44:30;;;;;;;13.18;8.00;;;3.40;95.70;;;;;;5054308;28;20068;-81
2021/04/11 01:46:57;;;;;;;14.30;8.27;;;3.50;95.70;;;;;;5074226;28;20036;-82
2021/04/11 01:49:24;;;;;;;11.45;7.35;;;3.40;95.90;;;;;;5072867;28;22620;-83
2021/04/11 01:51:57;;;;;;;13.15;7.35;;;3.40;95.60;;;;;;5055094;28;20093;-81
2021/04/11 01:54:24;;;;;;;;;;;3.40;95.60;;;;;;5075661;28;20032;-83
2021/04/11 01:56:50;;;;;;;12.48;7.55;;;3.40;95.90;;;;;;5083253;28;20345;-83
2021/04/11 01:59:24;;;;;;;10.50;6.72;;;3.40;95.60;;;;;;5073262;28;20046;-81
2021/04/11 02:01:50;;;;;;;13.75;7.32;;;3.40;95.60;;;;;;5080416;28;20028;-82
2021/04/11 02:04:17;;;;;;;11.93;7.25;;;3.40;95.60;;;;;;5065939;28;20036;-84
2021/04/11 02:06:50;;;;;;;7.25;5.93;;;3.40;95.60;;;;;;5086256;28;20051;-82
2021/04/11 02:09:27;;;;;;;10.27;6.90;;;3.40;95.60;;;;;;5075941;28;20032;-81
2021/04/11 02:11:54;;;;;;;12.73;6.03;;;3.40;95.50;;;;;;5068138;28;20025;-81
2021/04/11 02:14:20;;;;;;;10.93;6.93;;;3.30;95.50;;;;;;5067547;28;20036;-84
2021/04/11 02:16:46;;;;;;;8.85;7.15;;;3.40;95.50;;;;;;5073111;28;20490;-84
2021/04/11 02:19:19;;;;;;;16.33;8.82;;;3.30;95.50;;;;;;5055387;28;20044;-83
2021/04/11 02:21:50;;;;;;;13.23;8.93;;;3.30;95.50;;;;;;5056738;28;20070;-83
2021/04/11 02:24:16;;;;;;;15.93;9.65;;;3.30;95.60;;;;;;5075660;28;20024;-84
2021/04/11 02:26:42;;;;;;;12.45;9.30;;;3.30;95.60;;;;;;5065521;28;20032;-83
2021/04/11 02:29:13;;;;;;;14.75;10.27;;;3.30;95.60;;;;;;5053410;28;20051;-83
2021/04/11 02:31:39;;;;;;;17.60;11.25;;;3.40;95.60;;;;;;5078831;28;20040;-83
2021/04/11 02:34:10;;;;;;;18.33;11.70;;;3.30;95.60;;;;;;5072315;28;20446;-83
2021/04/11 02:36:41;;;;;;;14.48;11.05;;;3.40;95.60;;;;;;5088721;28;20028;-83
2021/04/11 02:39:17;;;;;;;17.13;11.38;;;3.40;95.60;;;;;;5088940;28;20024;-84
2021/04/11 02:41:44;;;;;;;18.00;10.73;;;3.40;95.60;;;;;;5060416;28;20538;-83
2021/04/11 02:44:10;;;;;;;19.95;13.32;;;3.30;95.60;;;;;;5070938;28;20035;-83
2021/04/11 02:46:38;;;;;;;22.50;15.75;;;3.30;95.60;;;;;;5056169;28;20040;-83
2021/04/11 02:49:05;;;;;;;23.52;15.98;;;3.40;95.70;;;;;;5073762;28;20044;-84
2021/04/11 02:51:34;;;;;;;20.67;14.82;;;3.40;95.70;;;;;;5042735;28;20405;-83
2021/04/11 02:54:03;;;;;;;22.27;14.82;;;3.30;95.70;;;;;;5083423;28;20119;-83
2021/04/11 02:56:29;;;;;;;20.98;13.90;;;3.40;95.70;;;;;;5080993;28;20038;-83
2021/04/11 02:58:56;;;;;;;22.67;13.50;;;3.40;95.70;;;;;;5052607;28;20458;-83
2021/04/11 03:01:33;;;;;;;16.83;13.15;;;3.40;95.70;;;;;;5055864;28;20123;-83
2021/04/11 03:04:00;;;;;;;22.77;14.38;;;3.40;95.70;;;;;;5064990;28;20122;-83
2021/04/11 03:06:31;;;;;;;23.52;13.15;;;3.40;95.70;;;;;;5085240;28;20036;-84
2021/04/11 03:09:02;;;;;;;23.55;14.73;;;3.40;95.70;;;;;;5067716;28;20032;-84
2021/04/11 03:11:34;;;;;;;19.63;13.80;;;3.40;95.70;;;;;;5073378;28;20036;-85
2021/04/11 03:14:01;;;;;;;23.75;15.45;;;3.40;95.70;;;;;;5064780;28;20130;-82
2021/04/11 03:16:28;;;;;;;22.15;12.65;;;3.40;95.70;;;;;;5055252;28;20684;-83
2021/04/11 03:18:58;;;;;;;17.42;12.07;;;3.40;95.70;;;;;;5067107;28;20743;-84
2021/04/11 03:21:24;;;;;;;24.23;11.98;;;3.40;95.70;;;;;;5083360;28;20032;-83
2021/04/11 03:23:52;;;;;;;15.07;10.65;;;3.40;95.70;;;;;;5086325;28;20498;-83
2021/04/11 03:26:26;;;;;;;14.07;10.35;;;3.50;95.80;;;;;;5090493;28;20058;-84
2021/04/11 03:29:00;;;;;;;14.02;9.30;;;3.40;95.70;;;;;;5074142;28;20043;-82
2021/04/11 03:31:33;;;;;;;18.35;9.40;;;3.40;95.70;;;;;;5085901;28;20028;-82
2021/04/11 03:34:02;;;;;;;14.63;9.85;;;3.40;95.80;;;;;;5090327;28;20087;-83
2021/04/11 03:36:29;;;;;;;13.98;7.90;;;3.40;95.80;;;;;;5089821;28;20062;-83
2021/04/11 03:38:57;;;;;;;12.65;7.97;;;3.30;95.80;;;;;;5070799;28;20051;-84
2021/04/11 03:41:27;;;;;;;14.57;8.20;;;3.40;95.80;;;;;;5084298;28;20031;-83
2021/04/11 03:43:55;;;;;;;11.40;8.27;;;3.40;95.80;;;;;;5066131;28;20032;-83
2021/04/11 03:46:47;;;;;;;14.65;9.15;;;3.40;95.80;;;;;;5066924;28;20037;-82
2021/04/11 03:49:39;;;;;;;17.83;9.52;;;3.40;95.80;;;;;;5074817;28;20064;-83
2021/04/11 03:52:12;;;;;;;12.55;8.40;;;3.40;95.80;;;;;;5072127;28;20032;-83
2021/04/11 03:54:42;;;;;;;14.23;8.32;;;3.40;95.80;;;;;;5074514;28;20040;-84
2021/04/11 03:57:15;;;;;;;17.58;8.82;;;3.30;95.80;;;;;;5078752;28;20036;-83
2021/04/11 03:59:46;;;;;;;;;;;3.30;95.70;;;;;;5073563;28;20056;-84
2021/04/11 04:02:14;;;;;;;13.63;8.00;;;3.40;95.80;;;;;;5076557;28;19920;-84
2021/04/11 04:04:41;;;;;;;16.50;8.57;;;3.40;95.80;;;;;;5078554;28;20033;-83
2021/04/11 04:07:14;;;;;;;16.02;8.20;;;3.40;95.80;;;;;;5065829;28;20127;-83
2021/04/11 04:09:42;;;;;;;12.40;8.75;;;3.40;95.80;;;;;;5074386;28;20038;-86
2021/04/11 04:12:08;;;;;;;10.48;7.30;;;3.40;95.80;;;;;;5078551;28;20051;-84
2021/04/11 04:14:43;;;;;;;8.07;5.80;;;3.40;95.80;;;;;;5082566;28;20111;-84
2021/04/11 04:17:40;;;;;;;11.52;6.95;;;3.40;95.80;;;;;;5078542;28;20036;-83
2021/04/11 04:20:41;;;;;;;10.88;6.35;;;3.40;95.80;;;;;;5059392;28;20067;-83
2021/04/11 04:23:45;;;;;;;10.23;5.72;;;3.40;95.80;;;;;;5068707;28;20043;-84
2021/04/11 04:26:36;;;;;;;10.15;6.18;;;3.40;95.80;;;;;;5066438;28;20059;-84
2021/04/11 04:29:34;;;;;;;9.52;5.80;;;3.40;95.80;;;;;;5069537;28;20060;-83
2021/04/11 04:32:09;;;;;;;7.97;5.20;;;3.40;95.70;;;;;;5096113;27;20234;-84
2021/04/11 04:34:41;;;;;;;11.13;5.65;;;3.40;95.70;;;;;;5076338;28;20044;-83
2021/04/11 04:37:26;;;;;;;9.27;5.65;;;3.40;95.80;;;;;;5076574;28;20036;-85
2021/04/11 04:40:08;;;;;;;12.38;5.43;;;3.30;95.80;;;;;;5073548;28;20166;-84
2021/04/11 04:42:54;;;;;;;;;;;3.40;95.80;;;;;;5086323;28;20063;-83
2021/04/11 04:45:33;;;;;;;9.57;5.10;;;3.30;95.80;;;;;;5097511;28;19920;-85
2021/04/11 04:48:23;;;;;;;9.55;5.28;;;3.30;95.80;;;;;;5087856;28;20036;-85
2021/04/11 04:51:00;;;;;;;7.75;4.30;;;3.30;95.80;;;;;;5087987;28;20674;-85
2021/04/11 04:53:43;;;;;;;9.15;4.68;;;3.40;95.80;;;;;;5066129;28;20445;-85
2021/04/11 04:56:16;;;;;;;6.55;4.32;;;3.30;95.80;;;;;;5081875;28;20098;-85
2021/04/11 04:58:43;;;;;;;;;;;3.30;95.80;;;;;;5071199;28;20032;-84
2021/04/11 05:01:17;;;;;;;9.35;4.47;;;3.30;95.90;;;;;;5072984;28;19964;-83
2021/04/11 05:03:47;;;;;;;6.93;3.92;;;3.30;95.80;;;;;;5078890;28;20035;-84
2021/04/11 05:06:22;;;;;;;5.60;4.07;;;3.40;95.80;;;;;;5085228;28;20028;-84
2021/04/11 05:08:48;;;;;;;6.43;4.40;;;3.30;95.80;;;;;;5088977;28;20063;-84
2021/04/11 05:11:36;;;;;;;7.78;4.47;;;3.40;95.80;;;;;;5080137;28;20052;-82
2021/04/11 05:14:25;;;;;;;7.57;4.25;;;3.30;95.90;;;;;;5078682;28;20036;-84
2021/04/11 05:17:23;;;;;;;7.85;4.28;;;3.30;95.90;;;;;;5087473;28;20036;-83
2021/04/11 05:19:58;;;;;;;9.32;3.72;;;3.40;95.90;;;;;;5065530;28;20067;-83
2021/04/11 05:22:36;;;;;;;6.65;3.80;;;3.40;95.80;;;;;;5076145;28;20483;-83
2021/04/11 05:25:16;;;;;;;7.80;3.75;;;3.40;95.90;;;;;;5079284;28;20047;-84
2021/04/11 05:28:00;;;;;;;6.10;3.72;;;3.40;95.90;;;;;;5085789;28;20028;-84
2021/04/11 05:30:31;;;;;;;13.00;4.00;;;3.40;96.00;;;;;;5097860;28;20117;-83
2021/04/11 05:32:57;;;;;;;6.95;3.40;;;3.40;95.80;;;;;;5084717;28;20032;-84
2021/04/11 05:35:25;;;;;;;4.13;3.00;;;3.30;95.80;;;;;;5077582;28;20119;-84
2021/04/11 05:38:12;;;;;;;4.20;2.97;;;3.40;95.90;;;;;;5085885;28;20035;-84
2021/04/11 05:40:49;;;;;;;3.47;2.90;;;3.40;95.90;;;;;;5075957;28;20036;-84
2021/04/11 05:43:26;;;;;;;5.40;2.95;;;3.40;95.90;;;;;;5060562;28;20104;-84
2021/04/11 05:46:00;;;;;;;4.57;3.22;;;3.50;95.90;;;;;;5077148;28;20055;-83
2021/04/11 05:48:29;;;;;;;5.68;3.53;;;3.50;96.00;;;;;;5074890;28;20047;-83
2021/04/11 05:51:04;;;;;;;5.55;2.75;;;3.50;95.90;;;;;;5074246;28;20028;-83
2021/04/11 05:53:41;;;;;;;4.35;3.08;;;3.50;95.90;;;;;;5052430;28;20046;-84
2021/04/11 05:56:22;;;;;;;6.03;2.80;;;3.50;95.90;;;;;;5075145;28;20031;-84
2021/04/11 05:59:04;;;;;;;6.75;2.97;;;3.50;95.90;;;;;;5073693;28;20036;-84
2021/04/11 06:01:40;;;;;;;3.87;2.60;;;3.50;95.90;;;;;;5074012;28;20094;-84
2021/04/11 06:04:36;;;;;;;3.85;2.95;;;3.50;95.90;;;;;;5073076;28;20035;-85
2021/04/11 06:07:12;;;;;;;6.45;2.33;;;3.50;95.90;;;;;;5069871;28;20697;-85
2021/04/11 06:09:44;;;;;;;4.03;2.78;;;3.50;95.90;;;;;;5070650;28;20032;-85
2021/04/11 06:12:10;;;;;;;6.85;2.65;;;3.50;95.90;;;;;;5073275;28;20040;-84
2021/04/11 06:14:56;;;;;;;5.20;2.30;;;3.50;95.80;;;;;;5072485;28;20040;-84
2021/04/11 06:17:22;;;;;;;9.15;2.50;;;3.50;95.90;;;;;;5083297;28;20044;-85
2021/04/11 06:19:49;;;;;;;3.85;2.22;;;3.50;95.80;;;;;;5088243;28;20043;-86
2021/04/11 06:22:28;;;;;;;4.93;2.00;;;3.60;95.90;;;;;;5071351;28;20174;-84
2021/04/11 06:25:02;;;;;;;4.75;1.90;;;3.50;95.80;;;;;;5087234;28;20424;-83
2021/04/11 06:27:46;;;;;;;3.72;2.40;;;3.50;95.80;;;;;;5079728;28;20182;-84
2021/04/11 06:30:14;;;;;;;5.22;2.40;;;3.50;95.80;;;;;;5080745;28;20055;-81
2021/04/11 06:33:02;;;;;;;3.30;2.40;;;3.60;95.80;;;;;;5086006;28;20047;-83
2021/04/11 06:35:43;;;;;;;5.88;2.58;;;3.60;95.80;;;;;;5077541;28;20044;-83
2021/04/11 06:38:13;;;;;;;3.85;2.33;;;3.60;95.80;;;;;;5082119;28;20043;-85
2021/04/11 06:40:58;;;;;;;4.13;2.00;;;3.60;95.70;;;;;;5102255;27;20101;-82
2021/04/11 06:43:45;;;;;;;2.60;2.25;;;3.60;95.70;;;;;;5089307;28;20528;-84
2021/04/11 06:46:41;;;;;;;6.55;2.63;;;3.60;95.70;;;;;;5093698;28;20027;-83
2021/04/11 06:49:13;;;;;;;3.85;2.05;;;3.60;95.70;;;;;;5074980;28;20043;-83
2021/04/11 06:52:16;;;;;;;6.05;2.60;;;3.50;95.70;;;;;;5068857;28;20067;-83
2021/04/11 06:54:56;;;;;;;2.28;1.60;;;3.60;95.70;;;;;;5105701;27;20035;-84
2021/04/11 06:57:44;;;;;;;5.65;2.15;;;3.60;95.70;;;;;;5089275;28;20076;-83
2021/04/11 07:00:42;;;;;;;6.72;2.45;;;3.60;95.70;;;;;;5081890;28;20480;-84
2021/04/11 07:03:20;;;;;;;5.93;1.95;;;3.60;95.60;;;;;;5028078;28;20044;-87
2021/04/11 07:06:08;;;;;;;6.43;2.30;;;3.60;95.50;;;;;;5065450;28;20131;-82
2021/04/11 07:08:58;;;;;;;3.03;1.45;;;3.60;95.50;;;;;;5073360;28;20036;-82
2021/04/11 07:11:28;;;;;;;3.38;1.70;;;3.70;95.50;;;;;;5083452;28;20456;-82
2021/04/11 07:14:30;;;;;;;6.35;2.28;;;3.70;95.50;;;;;;5080821;28;20033;-83
2021/04/11 07:17:39;;;;;;;;;;;;;;;;;;;;;
2021/04/11 07:20:30;;;;;;;6.97;2.00;;;3.70;95.50;;;;;;5073799;28;20074;-84
2021/04/11 07:23:30;;;;;;;4.95;1.40;;;3.70;95.50;;;;;;5067135;28;20090;-85
2021/04/11 07:26:28;;;;;;;4.03;1.58;;;3.80;95.40;;;;;;5078161;28;20047;-84
2021/04/11 07:28:57;;;;;;;5.68;1.55;;;3.90;95.40;;;;;;5082514;28;20042;-83
2021/04/11 07:32:01;;;;;;;5.65;1.83;;;3.90;95.40;;;;;;5080905;28;20037;-84
2021/04/11 07:34:45;;;;;;;8.30;1.75;;;4.00;95.30;;;;;;5076408;28;20039;-83
2021/04/11 07:37:17;;;;;;;5.20;1.55;;;4.00;95.30;;;;;;5079616;28;20043;-84
2021/04/11 07:40:24;;;;;;;3.50;1.60;;;4.00;95.30;;;;;;5064539;28;20375;-84
2021/04/11 07:43:20;;;;;;;6.70;2.10;;;4.10;95.20;;;;;;5078999;28;20413;-84
2021/04/11 07:46:05;;;;;;;10.65;1.92;;;4.10;95.10;;;;;;5079812;28;20050;-84
2021/04/11 07:48:53;;;;;;;8.20;2.00;;;4.20;95.10;;;;;;5077735;28;20447;-83
2021/04/11 07:51:28;;;;;;;4.60;2.03;;;4.20;94.90;;;;;;5063076;28;20428;-83
2021/04/11 07:54:21;;;;;;;8.68;2.00;;;4.30;95.00;;;;;;5072776;28;20024;-84
2021/04/11 07:57:29;;;;;;;5.75;2.30;;;4.30;94.90;;;;;;5081132;28;20032;-83
2021/04/11 08:00:10;;;;;;;6.47;1.83;;;4.30;94.90;;;;;;5064551;28;20036;-83
2021/04/11 08:02:39;;;;;;;5.97;2.38;;;4.40;94.90;;;;;;5083167;28;20390;-84
2021/04/11 08:05:29;;;;;;;10.15;2.10;;;4.50;94.90;;;;;;5071619;28;20040;-84
2021/04/11 08:08:18;;;;;;;6.55;1.90;;;4.60;94.90;;;;;;5083027;28;20044;-85
2021/04/11 08:11:35;;;;;;;9.13;1.85;;;4.70;94.70;;;;;;5079096;28;20040;-85
2021/04/11 08:14:25;;;;;;;7.20;2.15;;;4.70;94.40;;;;;;5054009;28;20036;-84
2021/04/11 08:17:09;;;;;;;8.07;2.35;;;4.90;94.60;;;;;;5068038;28;20059;-82
2021/04/11 08:20:02;;;;;;;5.03;1.52;;;5.00;94.60;;;;;;5070528;28;20398;-84
2021/04/11 08:23:02;;;;;;;7.00;1.58;;;5.00;94.40;;;;;;5073054;28;20387;-84
2021/04/11 08:25:58;;;;;;;7.35;1.85;;;5.20;94.30;;;;;;5064982;28;20040;-84
2021/04/11 08:28:39;;;;;;;8.98;1.98;;;5.20;94.10;;;;;;5060388;28;20040;-84
2021/04/11 08:31:47;;;;;;;8.45;1.90;;;5.20;94.10;;;;;;5064770;28;20427;-85
2021/04/11 08:34:27;;;;;;;8.32;1.90;;;5.20;94.00;;;;;;5070398;28;20056;-84
2021/04/11 08:37:30;;;;;;;4.78;1.80;;;5.20;94.00;;;;;;5068737;28;20090;-84
2021/04/11 08:40:17;;;;;;;5.93;1.60;;;5.10;94.00;;;;;;5070526;28;20040;-83
2021/04/11 08:43:07;;;;;;;4.13;1.45;;;5.10;93.90;;;;;;5077066;28;20029;-83
2021/04/11 08:46:27;;;;;;;6.47;1.95;;;5.10;93.70;;;;;;5072319;28;20044;-83
2021/04/11 08:49:25;;;;;;;2.80;1.33;;;5.20;93.60;;;;;;5022158;28;20041;-84
2021/04/11 08:52:00;;;;;;;8.05;1.52;;;5.20;93.60;;;;;;5075714;28;20028;-84
2021/04/11 08:54:50;;;;;;;11.70;1.73;;;5.20;93.50;;;;;;5065974;28;20051;-83
2021/04/11 08:57:28;;;;;;;4.50;1.45;;;5.20;93.30;;;;;;5067649;28;20290;-84
2021/04/11 09:00:21;;;;;;;4.43;1.50;;;5.20;93.40;;;;;;5058750;28;20076;-84
2021/04/11 09:02:58;;;;;;;10.43;1.50;;;5.20;93.40;;;;;;5070236;28;20481;-84
2021/04/11 09:05:42;;;;;;;7.78;1.42;;;5.30;93.50;;;;;;5072053;28;20041;-84
2021/04/11 09:08:27;;;;;;;7.35;1.67;;;5.20;93.10;;;;;;5091023;28;20025;-83
2021/04/11 09:11:18;;;;;;;9.45;1.48;;;5.30;92.80;;;;;;5064691;28;20369;-83
2021/04/11 09:14:04;;;;;;;4.30;1.25;;;5.40;92.90;;;;;;5094065;28;20012;-82
2021/04/11 09:16:45;;;;;;;4.68;1.20;;;5.30;92.80;;;;;;5093063;28;20071;-82
2021/04/11 09:19:32;;;;;;;5.15;1.48;;;5.30;92.90;;;;;;5069735;28;20045;-84
2021/04/11 09:22:12;;;;;;;8.57;1.80;;;5.30;92.80;;;;;;5072065;28;20036;-82
2021/04/11 09:24:49;;;;;;;4.88;1.20;;;5.40;93.00;;;;;;5068207;28;20096;-83
2021/04/11 09:27:41;;;;;;;4.35;1.50;;;5.40;93.00;;;;;;5072300;28;20436;-83
2021/04/11 09:30:45;;;;;;;9.43;1.48;;;5.40;92.70;;;;;;5052587;28;20064;-82
2021/04/11 09:33:10;;;;;;;;;;;5.40;92.60;;;;;;5079298;28;20043;-83
2021/04/11 09:36:03;;;;;;;5.30;1.08;;;5.30;92.30;;;;;;5072005;28;19923;-83
2021/04/11 09:38:59;;;;;;;6.00;1.35;;;5.30;92.60;;;;;;5075376;28;20028;-83
2021/04/11 09:42:03;;;;;;;7.63;1.48;;;5.20;92.70;;;;;;5069875;28;20337;-82
2021/04/11 09:44:54;;;;;;;6.13;1.58;;;5.30;92.90;;;;;;5071010;28;20036;-83
2021/04/11 09:47:53;;;;;;;4.35;1.33;;;5.40;92.70;;;;;;5071622;28;20483;-82
2021/04/11 09:50:42;;;;;;;4.55;1.10;;;5.40;92.30;;;;;;5056538;28;20458;-82
2021/04/11 09:53:29;;;;;;;7.68;1.45;;;5.40;92.10;;;;;;5057886;28;20044;-84
2021/04/11 09:56:22;;;;;;;3.80;1.77;;;5.30;92.10;;;;;;5079343;28;20039;-82
2021/04/11 09:58:51;;;;;;;8.45;1.75;;;5.30;92.40;;;;;;5069003;28;20056;-82
2021/04/11 10:01:47;;;;;;;8.45;1.67;;;5.40;92.20;;;;;;5077746;28;20055;-85
2021/04/11 10:04:31;;;;;;;9.60;1.60;;;5.40;92.30;;;;;;5070467;28;20032;-83
2021/04/11 10:07:00;;;;;;;5.93;1.90;;;5.50;92.50;;;;;;5068162;28;20526;-84
2021/04/11 10:09:44;;;;;;;8.70;1.63;;;5.80;92.50;;;;;;5081742;28;20543;-84
2021/04/11 10:12:36;;;;;;;8.43;1.75;;;5.90;92.30;;;;;;5084466;28;20032;-84
2021/04/11 10:15:36;;;;;;;7.05;1.77;;;6.00;91.70;;;;;;5083314;28;20039;-85
2021/04/11 10:18:35;;;;;;;5.45;1.60;;;6.20;92.20;;;;;;5080290;28;20028;-85
2021/04/11 10:21:23;;;;;;;11.32;2.35;;;6.30;91.40;;;;;;5074804;28;20078;-84
2021/04/11 10:23:55;;;;;;;7.63;1.73;;;6.40;91.30;;;;;;5080695;28;20036;-85
2021/04/11 10:26:46;;;;;;;9.07;1.97;;;6.50;91.10;;;;;;5079464;28;20063;-85
2021/04/11 10:29:17;;;;;;;4.35;1.60;;;6.60;90.90;;;;;;5071372;28;20087;-86
2021/04/11 10:31:52;;;;;;;8.20;1.30;;;6.70;90.60;;;;;;5067770;28;20041;-84
2021/04/11 10:34:38;;;;;;;6.55;1.98;;;6.60;90.70;;;;;;5068333;28;20055;-83
2021/04/11 10:37:26;;;;;;;5.53;1.63;;;6.60;90.50;;;;;;5076961;28;20102;-83
2021/04/11 10:40:09;;;;;;;8.13;1.75;;;6.70;90.30;;;;;;5074171;28;20055;-82
2021/04/11 10:42:44;;;;;;;6.70;1.70;;;6.60;90.00;;;;;;5072426;28;20039;-83
2021/04/11 10:45:36;;;;;;;9.35;2.00;;;6.60;90.40;;;;;;5069316;28;20028;-83
2021/04/11 10:48:15;;;;;;;6.78;1.50;;;6.50;90.40;;;;;;5059476;28;20513;-83
2021/04/11 10:50:51;;;;;;;8.25;1.75;;;6.50;89.50;;;;;;5070551;28;20024;-83
2021/04/11 10:53:38;;;;;;;16.08;2.42;;;6.40;90.00;;;;;;5048470;28;20087;-83
2021/04/11 10:56:10;;;;;;;9.15;1.80;;;6.30;89.90;;;;;;5070012;28;20491;-83
2021/04/11 10:58:48;;;;;;;4.18;1.60;;;6.30;90.40;;;;;;5063909;28;20113;-84
2021/04/11 11:01:20;;;;;;;6.15;1.65;;;6.30;90.50;;;;;;5065215;28;20435;-83
2021/04/11 11:04:10;;;;;;;7.47;1.80;;;6.40;90.40;;;;;;5070470;28;21423;-84
2021/04/11 11:06:45;;;;;;;4.80;1.83;;;6.50;90.60;;;;;;5053377;28;20248;-83
2021/04/11 11:09:35;;;;;;;8.65;2.30;;;6.50;90.60;;;;;;5073338;28;20039;-84
2021/04/11 11:12:13;;;;;;;4.85;1.55;;;6.60;90.00;;;;;;5072978;28;20038;-84
2021/04/11 11:14:54;;;;;;;6.90;1.60;;;6.50;89.50;;;;;;5080821;28;20040;-84
2021/04/11 11:18:01;;;;;;;9.38;1.70;;;6.40;89.20;;;;;;5082006;28;20032;-83
2021/04/11 11:20:55;;;;;;;3.08;1.35;;;6.40;88.40;;;;;;5065388;28;20127;-83
2021/04/11 11:23:52;;;;;;;5.50;1.88;;;6.30;88.90;;;;;;5082013;28;20312;-85
2021/04/11 11:26:24;;;;;;;2.95;1.35;;;6.30;88.80;;;;;;5062162;28;20056;-83
2021/04/11 11:29:17;;;;;;;4.55;1.88;;;6.40;89.20;;;;;;5069838;28;20060;-84
2021/04/11 11:32:06;;;;;;;7.15;2.00;;;6.50;89.00;;;;;;5066866;28;20032;-84
2021/04/11 11:34:55;;;;;;;6.97;1.98;;;6.60;88.60;;;;;;5077564;28;20032;-82
2021/04/11 11:37:48;;;;;;;4.95;1.60;;;6.60;88.10;;;;;;5088506;28;20043;-82
2021/04/11 11:40:34;;;;;;;7.75;2.03;;;6.50;87.50;;;;;;5076050;28;20073;-83
2021/04/11 11:43:11;;;;;;;5.10;1.70;;;6.40;88.30;;;;;;5065387;28;20276;-84
2021/04/11 11:46:17;;;;;;;3.30;1.67;;;6.30;87.80;;;;;;5063228;28;20032;-83
2021/04/11 11:49:07;;;;;;;7.20;1.80;;;6.20;87.70;;;;;;5064957;28;20043;-83
2021/04/11 11:51:48;;;;;;;3.92;1.55;;;6.20;87.80;;;;;;5062988;28;20400;-83
2021/04/11 11:54:41;;;;;;;5.22;1.70;;;6.10;87.90;;;;;;5065786;28;20024;-83
2021/04/11 11:57:20;;;;;;;;;;;6.20;88.30;;;;;;5050145;28;20074;-83
2021/04/11 12:00:02;;;;;;;5.88;1.42;;;6.30;88.00;;;;;;5058276;28;20231;-82
2021/04/11 12:02:28;;;;;;;3.97;1.40;;;6.40;88.00;;;;;;5082943;28;20035;-82
2021/04/11 12:05:19;;;;;;;5.15;1.50;;;6.40;87.70;;;;;;5075461;28;20036;-83
2021/04/11 12:08:12;;;;;;;6.00;1.55;;;6.50;87.60;;;;;;5062852;28;20070;-84
2021/04/11 12:10:44;;;;;;;5.45;1.58;;;6.50;86.90;;;;;;5086724;28;20111;-84
2021/04/11 12:13:22;;;;;;;5.18;1.60;;;6.50;87.20;;;;;;5076535;28;20192;-84
2021/04/11 12:16:21;;;;;;;8.13;1.92;;;6.50;87.00;;;;;;5088622;28;20116;-84
2021/04/11 12:19:19;;;;;;;6.93;1.58;;;6.40;87.50;;;;;;5071883;28;20514;-84
2021/04/11 12:21:52;;;;;;;4.40;1.20;;;6.20;87.90;;;;;;5063159;28;20079;-82
2021/04/11 12:24:24;;;;;;;4.45;1.42;;;6.00;88.50;;;;;;5072681;28;20395;-83
2021/04/11 12:26:56;;;;;;;5.70;1.20;;;6.00;89.60;;;;;;5071486;28;20072;-84
2021/04/11 12:29:27;;;;;;;1.33;0.80;;;6.10;90.00;;;;;;5083884;28;20404;-83
2021/04/11 12:31:59;;;;;;;4.68;1.13;;;6.20;89.80;;;;;;5080124;28;20388;-84
2021/04/11 12:34:36;;;;;;;3.80;0.90;;;6.20;89.30;;;;;;5089373;28;20054;-83
2021/04/11 12:37:14;;;;;;;5.10;1.00;;;6.10;89.20;;;;;;5055046;28;20072;-84
2021/04/11 12:39:40;;;;;;;3.78;0.95;;;6.10;89.60;;;;;;5067004;28;20064;-84
2021/04/11 12:42:55;;;;;;;3.33;1.10;;;6.10;89.80;;;;;;5060925;28;20559;-84
2021/04/11 12:45:31;;;;;;;1.92;0.90;;;6.30;89.80;;;;;;5033449;28;20040;-85
2021/04/11 12:48:28;;;;;;;1.75;1.08;;;6.50;89.30;;;;;;5052456;28;20036;-84
2021/04/11 12:51:07;;;;;;;2.55;1.08;;;6.90;90.30;;;;;;5067541;28;20537;-84
2021/04/11 12:53:47;;;;;;;4.63;1.20;;;7.20;89.90;;;;;;5085855;28;20560;-85
2021/04/11 12:56:15;;;;;;;6.28;1.30;;;7.40;89.00;;;;;;5085525;28;20190;-84
2021/04/11 12:58:52;;;;;;;4.40;1.20;;;7.40;88.20;;;;;;5088070;28;20060;-83
2021/04/11 13:01:29;;;;;;;3.40;1.13;;;7.20;87.80;;;;;;5080036;28;20036;-86
2021/04/11 13:04:36;;;;;;;3.40;1.10;;;7.10;87.60;;;;;;5074148;28;20043;-82
2021/04/11 13:07:07;;;;;;;9.18;2.10;;;7.00;86.30;;;;;;5030846;28;20503;-82
2021/04/11 13:09:50;;;;;;;2.20;0.95;;;6.80;87.40;;;;;;5085276;28;20048;-83
2021/04/11 13:12:22;;;;;;;;;;;6.70;85.90;;;;;;5091898;28;20028;-82
2021/04/11 13:14:58;;;;;;;5.10;1.20;;;6.70;85.70;;;;;;5094256;28;19922;-81
2021/04/11 13:17:46;;;;;;;2.65;0.95;;;6.80;86.20;;;;;;5088759;28;20077;-82
2021/04/11 13:20:24;;;;;;;3.50;1.20;;;7.00;85.30;;;;;;5067322;28;20033;-82
2021/04/11 13:23:04;;;;;;;7.15;1.30;;;7.10;85.80;;;;;;5071648;28;20028;-82
2021/04/11 13:25:48;;;;;;;4.70;1.17;;;7.20;84.90;;;;;;5068911;28;20044;-81
2021/04/11 13:28:29;;;;;;;4.95;1.08;;;7.20;82.90;;;;;;5076911;28;20044;-82
2021/04/11 13:31:09;;;;;;;2.63;1.10;;;7.20;84.10;;;;;;5070509;28;20054;-82
2021/04/11 13:33:44;;;;;;;4.05;1.25;;;7.20;84.10;;;;;;5072595;28;20046;-82
2021/04/11 13:36:26;;;;;;;5.00;1.02;;;7.20;84.10;;;;;;5077842;28;20127;-83
2021/04/11 13:39:12;;;;;;;5.25;1.25;;;7.20;83.70;;;;;;5070751;28;20942;-82
2021/04/11 13:41:43;;;;;;;7.03;1.65;;;7.10;83.90;;;;;;5057741;28;20278;-82
2021/04/11 13:44:15;;;;;;;5.32;1.25;;;7.00;83.80;;;;;;5074437;28;20029;-82
2021/04/11 13:47:14;;;;;;;5.72;1.30;;;6.90;83.90;;;;;;5071306;28;20036;-81
2021/04/11 13:50:11;;;;;;;3.72;1.08;;;6.80;82.90;;;;;;5069281;28;20564;-83
2021/04/11 13:52:54;;;;;;;3.42;1.20;;;6.50;84.50;;;;;;5073311;28;20106;-83
2021/04/11 13:55:29;;;;;;;;;;;6.30;84.80;;;;;;5069347;28;20035;-81
2021/04/11 13:58:06;;;;;;;1.90;0.70;;;6.30;85.60;;;;;;5087402;28;20131;-81